sensor_id;sensor_type;location;lat;lon;timestamp;pressure;altitude;pressure_sealevel;temperature;humidity
32197;BME280;18697;42.770;23.400;2023-06-22T00:01:58;95953.38;;;23.05;61.41
32197;BME280;18697;42.770;23.400;2023-06-22T00:04:24;95963.41;;;22.92;62.07
32197;BME280;18697;42.770;23.400;2023-06-22T00:06:49;95957.34;;;23.02;61.50
32197;BME280;18697;42.770;23.400;2023-06-22T00:09:14;95962.84;;;22.94;61.78
32197;BME280;18697;42.770;23.400;2023-06-22T00:11:40;95965.25;;;23.03;61.35
32197;BME280;18697;42.770;23.400;2023-06-22T00:14:05;95975.72;;;22.95;62.06
32197;BME280;18697;42.770;23.400;2023-06-22T00:16:34;95964.25;;;22.87;62.32
32197;BME280;18697;42.770;23.400;2023-06-22T00:19:00;95957.34;;;22.64;63.46
32197;BME280;18697;42.770;23.400;2023-06-22T00:21:26;95964.25;;;22.69;63.29
32197;BME280;18697;42.770;23.400;2023-06-22T00:23:52;95957.75;;;22.36;65.23
32197;BME280;18697;42.770;23.400;2023-06-22T00:26:17;95950.75;;;22.00;67.37
32197;BME280;18697;42.770;23.400;2023-06-22T00:28:43;95954.47;;;21.64;69.11
32197;BME280;18697;42.770;23.400;2023-06-22T00:31:08;95954.19;;;21.68;68.66
32197;BME280;18697;42.770;23.400;2023-06-22T00:33:34;95952.31;;;21.76;68.40
32197;BME280;18697;42.770;23.400;2023-06-22T00:35:59;95962.66;;;21.92;67.79
32197;BME280;18697;42.770;23.400;2023-06-22T00:38:24;95966.53;;;22.14;66.87
32197;BME280;18697;42.770;23.400;2023-06-22T00:40:50;95947.78;;;22.29;66.28
32197;BME280;18697;42.770;23.400;2023-06-22T00:43:15;95948.19;;;22.39;66.08
32197;BME280;18697;42.770;23.400;2023-06-22T00:45:41;95944.81;;;22.41;65.54
32197;BME280;18697;42.770;23.400;2023-06-22T00:48:07;95952.16;;;22.49;64.98
32197;BME280;18697;42.770;23.400;2023-06-22T00:50:33;95949.78;;;22.53;64.74
32197;BME280;18697;42.770;23.400;2023-06-22T00:53:05;95947.41;;;22.39;63.89
32197;BME280;18697;42.770;23.400;2023-06-22T00:55:35;95960.28;;;22.21;64.68
32197;BME280;18697;42.770;23.400;2023-06-22T00:58:03;95959.50;;;22.02;65.33
32197;BME280;18697;42.770;23.400;2023-06-22T01:00:31;95964.25;;;21.88;66.79
32197;BME280;18697;42.770;23.400;2023-06-22T01:02:58;95961.81;;;21.97;66.45
32197;BME280;18697;42.770;23.400;2023-06-22T01:05:23;95964.88;;;22.00;66.44
32197;BME280;18697;42.770;23.400;2023-06-22T01:07:55;95964.19;;;21.93;66.43
32197;BME280;18697;42.770;23.400;2023-06-22T01:15:46;95966.19;;;21.98;66.72
32197;BME280;18697;42.770;23.400;2023-06-22T01:18:17;95968.69;;;22.08;66.47
32197;BME280;18697;42.770;23.400;2023-06-22T01:20:43;95970.66;;;22.13;65.83
32197;BME280;18697;42.770;23.400;2023-06-22T01:25:57;95970.19;;;22.09;66.25
32197;BME280;18697;42.770;23.400;2023-06-22T01:31:10;95963.13;;;22.21;65.94
32197;BME280;18697;42.770;23.400;2023-06-22T01:33:39;95964.88;;;22.24;65.88
32197;BME280;18697;42.770;23.400;2023-06-22T01:36:06;95972.38;;;22.21;66.01
32197;BME280;18697;42.770;23.400;2023-06-22T01:38:32;95969.47;;;22.27;66.02
32197;BME280;18697;42.770;23.400;2023-06-22T01:40:59;95978.63;;;22.33;65.74
32197;BME280;18697;42.770;23.400;2023-06-22T01:43:26;95976.66;;;22.28;65.80
32197;BME280;18697;42.770;23.400;2023-06-22T01:45:54;95971.88;;;22.36;65.74
32197;BME280;18697;42.770;23.400;2023-06-22T01:48:21;95974.72;;;22.36;65.59
32197;BME280;18697;42.770;23.400;2023-06-22T01:50:47;95979.25;;;22.26;65.95
32197;BME280;18697;42.770;23.400;2023-06-22T01:53:12;95982.75;;;22.13;66.53
32197;BME280;18697;42.770;23.400;2023-06-22T01:55:38;95988.41;;;22.32;65.89
32197;BME280;18697;42.770;23.400;2023-06-22T01:58:03;95988.88;;;22.36;65.38
32197;BME280;18697;42.770;23.400;2023-06-22T02:00:31;95985.44;;;22.24;65.68
32197;BME280;18697;42.770;23.400;2023-06-22T02:02:59;95991.09;;;22.24;65.86
32197;BME280;18697;42.770;23.400;2023-06-22T02:05:30;95990.63;;;22.39;64.82
32197;BME280;18697;42.770;23.400;2023-06-22T02:08:10;95993.22;;;22.37;65.22
32197;BME280;18697;42.770;23.400;2023-06-22T02:10:38;96001.41;;;22.41;64.49
32197;BME280;18697;42.770;23.400;2023-06-22T02:13:08;95992.75;;;22.33;64.82
32197;BME280;18697;42.770;23.400;2023-06-22T02:15:34;95993.47;;;22.39;64.40
32197;BME280;18697;42.770;23.400;2023-06-22T02:18:00;96002.63;;;22.45;64.42
32197;BME280;18697;42.770;23.400;2023-06-22T02:20:26;96000.81;;;22.48;64.08
32197;BME280;18697;42.770;23.400;2023-06-22T02:22:51;95989.56;;;22.42;64.13
32197;BME280;18697;42.770;23.400;2023-06-22T02:25:16;95982.97;;;22.34;64.61
32197;BME280;18697;42.770;23.400;2023-06-22T02:27:42;95984.38;;;22.46;64.33
32197;BME280;18697;42.770;23.400;2023-06-22T02:30:09;95981.75;;;22.48;64.12
32197;BME280;18697;42.770;23.400;2023-06-22T02:32:35;95983.13;;;22.42;64.27
32197;BME280;18697;42.770;23.400;2023-06-22T02:35:01;95988.03;;;22.41;64.13
32197;BME280;18697;42.770;23.400;2023-06-22T02:37:31;95982.91;;;22.40;64.06
32197;BME280;18697;42.770;23.400;2023-06-22T02:39:56;95981.38;;;22.39;64.00
32197;BME280;18697;42.770;23.400;2023-06-22T02:42:22;95984.16;;;22.25;64.33
32197;BME280;18697;42.770;23.400;2023-06-22T02:44:47;95983.97;;;22.18;64.85
32197;BME280;18697;42.770;23.400;2023-06-22T02:47:13;95985.34;;;22.11;64.84
32197;BME280;18697;42.770;23.400;2023-06-22T02:49:39;95993.84;;;22.11;64.84
32197;BME280;18697;42.770;23.400;2023-06-22T02:54:30;95987.56;;;22.18;64.25
32197;BME280;18697;42.770;23.400;2023-06-22T02:56:55;95984.81;;;22.13;64.20
32197;BME280;18697;42.770;23.400;2023-06-22T02:59:21;95992.91;;;22.03;65.00
32197;BME280;18697;42.770;23.400;2023-06-22T03:01:49;95996.53;;;21.98;64.93
32197;BME280;18697;42.770;23.400;2023-06-22T03:04:15;96004.25;;;21.97;64.76
32197;BME280;18697;42.770;23.400;2023-06-22T03:06:41;95996.59;;;21.68;65.79
32197;BME280;18697;42.770;23.400;2023-06-22T03:09:07;96004.00;;;21.71;66.11
32197;BME280;18697;42.770;23.400;2023-06-22T03:11:33;96000.06;;;21.80;65.77
32197;BME280;18697;42.770;23.400;2023-06-22T03:13:59;96006.13;;;21.89;65.18
32197;BME280;18697;42.770;23.400;2023-06-22T03:16:25;96012.84;;;21.86;65.75
32197;BME280;18697;42.770;23.400;2023-06-22T03:18:51;96017.38;;;21.95;65.55
32197;BME280;18697;42.770;23.400;2023-06-22T03:21:16;96015.00;;;22.05;65.13
32197;BME280;18697;42.770;23.400;2023-06-22T03:23:42;96010.56;;;22.09;65.11
32197;BME280;18697;42.770;23.400;2023-06-22T03:26:11;96021.59;;;22.13;64.77
32197;BME280;18697;42.770;23.400;2023-06-22T03:28:37;96013.94;;;22.08;64.65
32197;BME280;18697;42.770;23.400;2023-06-22T03:31:03;96023.72;;;22.07;64.54
32197;BME280;18697;42.770;23.400;2023-06-22T03:33:29;96015.22;;;22.07;64.61
32197;BME280;18697;42.770;23.400;2023-06-22T03:35:55;96018.75;;;21.88;65.35
32197;BME280;18697;42.770;23.400;2023-06-22T03:38:20;96025.94;;;21.89;65.63
32197;BME280;18697;42.770;23.400;2023-06-22T03:40:45;96023.56;;;21.93;65.43
32197;BME280;18697;42.770;23.400;2023-06-22T03:43:11;96027.06;;;22.05;65.09
32197;BME280;18697;42.770;23.400;2023-06-22T03:45:36;96021.06;;;22.14;64.86
32197;BME280;18697;42.770;23.400;2023-06-22T03:48:02;96030.19;;;22.26;64.68
32197;BME280;18697;42.770;23.400;2023-06-22T03:50:28;96025.19;;;22.32;64.24
32197;BME280;18697;42.770;23.400;2023-06-22T03:52:53;96038.28;;;22.35;64.37
32197;BME280;18697;42.770;23.400;2023-06-22T03:55:19;96041.63;;;22.34;64.88
32197;BME280;18697;42.770;23.400;2023-06-22T03:57:45;96041.16;;;22.29;65.04
32197;BME280;18697;42.770;23.400;2023-06-22T04:00:11;96038.81;;;22.34;65.02
32197;BME280;18697;42.770;23.400;2023-06-22T04:02:37;96038.66;;;22.26;65.27
32197;BME280;18697;42.770;23.400;2023-06-22T04:05:02;96037.66;;;22.23;65.05
32197;BME280;18697;42.770;23.400;2023-06-22T04:07:28;96045.19;;;21.37;68.73
32197;BME280;18697;42.770;23.400;2023-06-22T04:09:53;96048.31;;;21.33;69.08
32197;BME280;18697;42.770;23.400;2023-06-22T04:12:18;96038.47;;;21.04;69.78
32197;BME280;18697;42.770;23.400;2023-06-22T04:14:44;96041.84;;;21.38;68.28
32197;BME280;18697;42.770;23.400;2023-06-22T04:17:09;96036.50;;;21.59;68.16
32197;BME280;18697;42.770;23.400;2023-06-22T04:19:35;96027.69;;;21.68;67.53
32197;BME280;18697;42.770;23.400;2023-06-22T04:22:00;96021.72;;;21.72;67.14
32197;BME280;18697;42.770;23.400;2023-06-22T04:24:25;96024.22;;;21.81;67.43
32197;BME280;18697;42.770;23.400;2023-06-22T04:26:51;96020.91;;;22.01;66.72
32197;BME280;18697;42.770;23.400;2023-06-22T04:29:20;96017.00;;;22.10;66.07
32197;BME280;18697;42.770;23.400;2023-06-22T04:31:46;96022.22;;;22.24;65.88
32197;BME280;18697;42.770;23.400;2023-06-22T04:34:16;96020.94;;;22.25;65.42
32197;BME280;18697;42.770;23.400;2023-06-22T04:36:42;96024.19;;;22.29;65.35
32197;BME280;18697;42.770;23.400;2023-06-22T04:39:09;96035.66;;;22.37;65.16
32197;BME280;18697;42.770;23.400;2023-06-22T04:41:39;96011.50;;;22.17;65.61
32197;BME280;18697;42.770;23.400;2023-06-22T04:44:18;96025.59;;;22.23;65.62
32197;BME280;18697;42.770;23.400;2023-06-22T04:46:57;96033.25;;;22.28;65.58
32197;BME280;18697;42.770;23.400;2023-06-22T04:49:28;96042.69;;;22.30;65.50
32197;BME280;18697;42.770;23.400;2023-06-22T04:52:05;96043.31;;;22.42;65.90
32197;BME280;18697;42.770;23.400;2023-06-22T04:54:31;96040.72;;;22.44;65.25
32197;BME280;18697;42.770;23.400;2023-06-22T04:56:59;96046.25;;;22.55;65.38
32197;BME280;18697;42.770;23.400;2023-06-22T04:59:29;96052.75;;;22.50;65.39
32197;BME280;18697;42.770;23.400;2023-06-22T05:02:00;96051.91;;;22.55;65.34
32197;BME280;18697;42.770;23.400;2023-06-22T05:04:26;96045.81;;;22.70;64.67
32197;BME280;18697;42.770;23.400;2023-06-22T05:06:53;96033.41;;;22.73;64.91
32197;BME280;18697;42.770;23.400;2023-06-22T05:09:20;96026.41;;;22.80;64.75
32197;BME280;18697;42.770;23.400;2023-06-22T05:11:46;96037.34;;;22.89;64.52
32197;BME280;18697;42.770;23.400;2023-06-22T05:14:12;96040.94;;;22.89;64.51
32197;BME280;18697;42.770;23.400;2023-06-22T05:16:38;96050.34;;;22.98;64.55
32197;BME280;18697;42.770;23.400;2023-06-22T05:19:04;96047.97;;;23.02;63.96
32197;BME280;18697;42.770;23.400;2023-06-22T05:21:30;96035.66;;;22.99;64.27
32197;BME280;18697;42.770;23.400;2023-06-22T05:23:56;96037.19;;;23.00;64.46
32197;BME280;18697;42.770;23.400;2023-06-22T05:26:25;96044.25;;;23.07;64.23
32197;BME280;18697;42.770;23.400;2023-06-22T05:28:51;96045.94;;;23.15;64.08
32197;BME280;18697;42.770;23.400;2023-06-22T05:31:17;96047.63;;;23.05;64.55
32197;BME280;18697;42.770;23.400;2023-06-22T05:33:45;96053.22;;;23.11;64.66
32197;BME280;18697;42.770;23.400;2023-06-22T05:36:12;96047.63;;;23.05;64.70
32197;BME280;18697;42.770;23.400;2023-06-22T05:38:38;96063.97;;;22.99;65.65
32197;BME280;18697;42.770;23.400;2023-06-22T05:41:03;96064.75;;;23.00;65.77
32197;BME280;18697;42.770;23.400;2023-06-22T05:43:29;96055.38;;;23.05;65.54
32197;BME280;18697;42.770;23.400;2023-06-22T05:45:54;96057.78;;;23.01;65.92
32197;BME280;18697;42.770;23.400;2023-06-22T05:48:20;96058.09;;;22.97;65.90
32197;BME280;18697;42.770;23.400;2023-06-22T05:50:45;96061.13;;;22.99;65.37
32197;BME280;18697;42.770;23.400;2023-06-22T05:53:11;96057.16;;;22.89;66.92
32197;BME280;18697;42.770;23.400;2023-06-22T05:55:36;96053.53;;;22.70;67.57
32197;BME280;18697;42.770;23.400;2023-06-22T05:58:02;96050.53;;;22.43;68.43
32197;BME280;18697;42.770;23.400;2023-06-22T06:00:28;96058.53;;;22.39;67.98
32197;BME280;18697;42.770;23.400;2023-06-22T06:02:54;96055.00;;;22.33;68.93
32197;BME280;18697;42.770;23.400;2023-06-22T06:05:19;96043.88;;;22.41;68.64
32197;BME280;18697;42.770;23.400;2023-06-22T06:07:46;96047.75;;;22.38;70.11
32197;BME280;18697;42.770;23.400;2023-06-22T06:10:12;96052.34;;;22.41;68.81
32197;BME280;18697;42.770;23.400;2023-06-22T06:12:38;96053.72;;;22.34;70.62
32197;BME280;18697;42.770;23.400;2023-06-22T06:15:04;96049.41;;;22.09;70.53
32197;BME280;18697;42.770;23.400;2023-06-22T06:17:30;96052.28;;;22.03;70.80
32197;BME280;18697;42.770;23.400;2023-06-22T06:19:56;96053.69;;;22.15;71.44
32197;BME280;18697;42.770;23.400;2023-06-22T06:22:23;96057.38;;;22.29;72.63
32197;BME280;18697;42.770;23.400;2023-06-22T06:24:49;96045.00;;;22.32;71.01
32197;BME280;18697;42.770;23.400;2023-06-22T06:27:15;96045.63;;;22.25;72.31
32197;BME280;18697;42.770;23.400;2023-06-22T06:29:40;96046.56;;;22.52;70.74
32197;BME280;18697;42.770;23.400;2023-06-22T06:32:06;96045.69;;;22.81;70.44
32197;BME280;18697;42.770;23.400;2023-06-22T06:34:32;96056.00;;;22.79;70.19
32197;BME280;18697;42.770;23.400;2023-06-22T06:36:57;96055.25;;;22.97;70.30
32197;BME280;18697;42.770;23.400;2023-06-22T06:39:22;96055.06;;;23.08;67.94
32197;BME280;18697;42.770;23.400;2023-06-22T06:41:48;96036.66;;;23.15;68.07
32197;BME280;18697;42.770;23.400;2023-06-22T06:44:13;96036.56;;;23.39;66.49
32197;BME280;18697;42.770;23.400;2023-06-22T06:46:39;96028.41;;;23.49;65.80
32197;BME280;18697;42.770;23.400;2023-06-22T06:49:04;96036.09;;;23.54;64.30
32197;BME280;18697;42.770;23.400;2023-06-22T06:51:30;96031.09;;;23.73;64.02
32197;BME280;18697;42.770;23.400;2023-06-22T06:53:55;96027.19;;;23.76;65.39
32197;BME280;18697;42.770;23.400;2023-06-22T06:56:21;96025.00;;;23.96;66.16
32197;BME280;18697;42.770;23.400;2023-06-22T06:58:46;96019.66;;;24.18;65.54
32197;BME280;18697;42.770;23.400;2023-06-22T07:01:12;96021.78;;;24.31;65.23
32197;BME280;18697;42.770;23.400;2023-06-22T07:03:38;96014.88;;;24.40;64.48
32197;BME280;18697;42.770;23.400;2023-06-22T07:06:04;96022.19;;;24.22;65.02
32197;BME280;18697;42.770;23.400;2023-06-22T07:08:29;96011.94;;;24.32;64.30
32197;BME280;18697;42.770;23.400;2023-06-22T07:10:55;96023.50;;;24.21;64.15
32197;BME280;18697;42.770;23.400;2023-06-22T07:13:20;96028.38;;;23.94;65.76
32197;BME280;18697;42.770;23.400;2023-06-22T07:15:46;96019.34;;;24.22;65.64
32197;BME280;18697;42.770;23.400;2023-06-22T07:18:11;96027.88;;;24.35;65.87
32197;BME280;18697;42.770;23.400;2023-06-22T07:20:37;96029.19;;;24.47;64.53
32197;BME280;18697;42.770;23.400;2023-06-22T07:23:04;96027.81;;;24.62;63.31
32197;BME280;18697;42.770;23.400;2023-06-22T07:25:29;96021.03;;;24.65;63.09
32197;BME280;18697;42.770;23.400;2023-06-22T07:28:05;96030.31;;;24.78;63.27
32197;BME280;18697;42.770;23.400;2023-06-22T07:30:31;96026.94;;;24.67;62.25
32197;BME280;18697;42.770;23.400;2023-06-22T07:32:58;96034.16;;;24.54;62.57
32197;BME280;18697;42.770;23.400;2023-06-22T07:35:24;96030.22;;;24.71;62.25
32197;BME280;18697;42.770;23.400;2023-06-22T07:37:50;96020.47;;;24.79;62.05
32197;BME280;18697;42.770;23.400;2023-06-22T07:40:15;96017.78;;;25.08;61.70
32197;BME280;18697;42.770;23.400;2023-06-22T07:42:41;96032.00;;;25.29;60.08
32197;BME280;18697;42.770;23.400;2023-06-22T07:45:07;96018.22;;;25.53;61.79
32197;BME280;18697;42.770;23.400;2023-06-22T07:47:35;96017.31;;;25.79;59.25
32197;BME280;18697;42.770;23.400;2023-06-22T07:50:02;96018.44;;;26.05;60.46
32197;BME280;18697;42.770;23.400;2023-06-22T07:52:28;96021.97;;;25.90;59.85
32197;BME280;18697;42.770;23.400;2023-06-22T07:54:54;96016.47;;;25.92;58.23
32197;BME280;18697;42.770;23.400;2023-06-22T07:57:20;96017.88;;;25.78;61.08
32197;BME280;18697;42.770;23.400;2023-06-22T07:59:45;96010.44;;;25.96;60.06
32197;BME280;18697;42.770;23.400;2023-06-22T08:02:11;96016.81;;;25.89;59.54
32197;BME280;18697;42.770;23.400;2023-06-22T08:04:37;96000.41;;;25.74;60.45
32197;BME280;18697;42.770;23.400;2023-06-22T08:07:02;96005.31;;;25.52;60.73
32197;BME280;18697;42.770;23.400;2023-06-22T08:09:30;96001.63;;;25.44;61.92
32197;BME280;18697;42.770;23.400;2023-06-22T08:11:56;95992.50;;;25.38;61.42
32197;BME280;18697;42.770;23.400;2023-06-22T08:14:22;95992.63;;;25.53;61.81
32197;BME280;18697;42.770;23.400;2023-06-22T08:16:48;95992.53;;;25.88;61.42
32197;BME280;18697;42.770;23.400;2023-06-22T08:19:13;95990.50;;;25.96;60.89
32197;BME280;18697;42.770;23.400;2023-06-22T08:21:39;95996.72;;;25.86;59.93
32197;BME280;18697;42.770;23.400;2023-06-22T08:24:05;95989.78;;;26.03;59.44
32197;BME280;18697;42.770;23.400;2023-06-22T08:26:30;95998.91;;;26.09;60.27
32197;BME280;18697;42.770;23.400;2023-06-22T08:28:55;95996.16;;;26.24;58.93
32197;BME280;18697;42.770;23.400;2023-06-22T08:31:21;95994.16;;;26.32;59.04
32197;BME280;18697;42.770;23.400;2023-06-22T08:33:46;96006.22;;;26.25;57.89
32197;BME280;18697;42.770;23.400;2023-06-22T08:36:12;95999.94;;;26.19;58.90
32197;BME280;18697;42.770;23.400;2023-06-22T08:38:38;96005.03;;;25.84;60.81
32197;BME280;18697;42.770;23.400;2023-06-22T08:41:04;95994.47;;;25.93;60.67
32197;BME280;18697;42.770;23.400;2023-06-22T08:43:30;95991.59;;;26.21;60.72
32197;BME280;18697;42.770;23.400;2023-06-22T08:45:55;95992.78;;;26.62;60.36
32197;BME280;18697;42.770;23.400;2023-06-22T08:48:21;95988.75;;;27.01;57.08
32197;BME280;18697;42.770;23.400;2023-06-22T08:50:46;95988.63;;;27.37;58.00
32197;BME280;18697;42.770;23.400;2023-06-22T08:53:11;95978.00;;;27.68;55.43
32197;BME280;18697;42.770;23.400;2023-06-22T08:55:37;95968.28;;;27.48;53.57
32197;BME280;18697;42.770;23.400;2023-06-22T08:58:02;95970.97;;;27.61;56.21
32197;BME280;18697;42.770;23.400;2023-06-22T09:00:29;95968.44;;;28.03;55.21
32197;BME280;18697;42.770;23.400;2023-06-22T09:02:58;95964.09;;;27.72;53.61
32197;BME280;18697;42.770;23.400;2023-06-22T09:05:24;95970.38;;;27.86;53.67
32197;BME280;18697;42.770;23.400;2023-06-22T09:07:51;95972.66;;;28.02;53.84
32197;BME280;18697;42.770;23.400;2023-06-22T09:10:16;95968.97;;;28.32;54.01
32197;BME280;18697;42.770;23.400;2023-06-22T09:12:42;95969.28;;;28.52;56.00
32197;BME280;18697;42.770;23.400;2023-06-22T09:15:09;95963.66;;;28.84;56.41
32197;BME280;18697;42.770;23.400;2023-06-22T09:17:37;95960.59;;;29.15;55.41
32197;BME280;18697;42.770;23.400;2023-06-22T09:20:03;95956.28;;;29.31;53.23
32197;BME280;18697;42.770;23.400;2023-06-22T09:22:31;95962.63;;;29.22;53.52
32197;BME280;18697;42.770;23.400;2023-06-22T09:24:57;95969.94;;;28.75;52.02
32197;BME280;18697;42.770;23.400;2023-06-22T09:27:22;95967.69;;;29.06;53.91
32197;BME280;18697;42.770;23.400;2023-06-22T09:29:49;95968.44;;;29.39;52.50
32197;BME280;18697;42.770;23.400;2023-06-22T09:32:14;95964.69;;;29.29;51.42
32197;BME280;18697;42.770;23.400;2023-06-22T09:34:40;95962.34;;;29.42;51.45
32197;BME280;18697;42.770;23.400;2023-06-22T09:37:06;95961.72;;;29.19;50.73
32197;BME280;18697;42.770;23.400;2023-06-22T09:39:31;95965.16;;;29.18;52.03
32197;BME280;18697;42.770;23.400;2023-06-22T09:41:59;95966.69;;;28.86;51.71
32197;BME280;18697;42.770;23.400;2023-06-22T09:44:25;95954.38;;;29.01;51.79
32197;BME280;18697;42.770;23.400;2023-06-22T09:46:50;95950.53;;;29.06;48.53
32197;BME280;18697;42.770;23.400;2023-06-22T09:49:16;95940.69;;;29.24;48.98
32197;BME280;18697;42.770;23.400;2023-06-22T09:51:41;95936.97;;;29.39;50.51
32197;BME280;18697;42.770;23.400;2023-06-22T09:54:06;95943.06;;;29.10;50.89
32197;BME280;18697;42.770;23.400;2023-06-22T09:56:32;95941.91;;;29.14;49.24
32197;BME280;18697;42.770;23.400;2023-06-22T09:58:57;95940.25;;;29.35;48.46
32197;BME280;18697;42.770;23.400;2023-06-22T10:01:23;95933.63;;;29.25;46.81
32197;BME280;18697;42.770;23.400;2023-06-22T10:03:48;95936.94;;;29.47;46.14
32197;BME280;18697;42.770;23.400;2023-06-22T10:06:14;95935.34;;;29.53;47.14
32197;BME280;18697;42.770;23.400;2023-06-22T10:08:40;95930.69;;;29.83;47.91
32197;BME280;18697;42.770;23.400;2023-06-22T10:11:06;95927.53;;;30.13;47.63
32197;BME280;18697;42.770;23.400;2023-06-22T10:13:31;95927.47;;;30.03;47.51
32197;BME280;18697;42.770;23.400;2023-06-22T10:15:57;95922.41;;;30.12;46.29
32197;BME280;18697;42.770;23.400;2023-06-22T10:18:22;95925.41;;;30.48;47.98
32197;BME280;18697;42.770;23.400;2023-06-22T10:20:49;95925.50;;;30.58;46.69
32197;BME280;18697;42.770;23.400;2023-06-22T10:23:21;95923.75;;;30.28;45.66
32197;BME280;18697;42.770;23.400;2023-06-22T10:25:47;95923.25;;;30.22;46.76
32197;BME280;18697;42.770;23.400;2023-06-22T10:28:12;95911.22;;;30.23;46.67
32197;BME280;18697;42.770;23.400;2023-06-22T10:30:38;95912.84;;;29.92;47.02
32197;BME280;18697;42.770;23.400;2023-06-22T10:33:07;95920.63;;;30.33;45.65
32197;BME280;18697;42.770;23.400;2023-06-22T10:35:32;95916.50;;;30.44;47.15
32197;BME280;18697;42.770;23.400;2023-06-22T10:37:57;95908.88;;;30.56;47.33
32197;BME280;18697;42.770;23.400;2023-06-22T10:40:23;95910.47;;;30.67;47.20
32197;BME280;18697;42.770;23.400;2023-06-22T10:42:48;95906.25;;;30.51;46.23
32197;BME280;18697;42.770;23.400;2023-06-22T10:45:15;95896.41;;;30.61;44.89
32197;BME280;18697;42.770;23.400;2023-06-22T10:47:40;95905.84;;;30.71;45.99
32197;BME280;18697;42.770;23.400;2023-06-22T10:50:07;95899.34;;;30.71;47.44
32197;BME280;18697;42.770;23.400;2023-06-22T10:52:33;95895.94;;;30.82;46.24
32197;BME280;18697;42.770;23.400;2023-06-22T10:54:58;95903.19;;;30.83;45.08
32197;BME280;18697;42.770;23.400;2023-06-22T10:57:24;95892.31;;;30.82;45.80
32197;BME280;18697;42.770;23.400;2023-06-22T10:59:49;95898.75;;;30.72;45.37
32197;BME280;18697;42.770;23.400;2023-06-22T11:02:15;95902.28;;;31.08;47.63
32197;BME280;18697;42.770;23.400;2023-06-22T11:04:40;95905.03;;;30.88;43.53
32197;BME280;18697;42.770;23.400;2023-06-22T11:07:06;95898.75;;;30.99;44.99
32197;BME280;18697;42.770;23.400;2023-06-22T11:09:31;95895.03;;;31.07;44.69
32197;BME280;18697;42.770;23.400;2023-06-22T11:11:57;95887.50;;;31.11;42.43
32197;BME280;18697;42.770;23.400;2023-06-22T11:14:24;95894.28;;;31.43;43.31
32197;BME280;18697;42.770;23.400;2023-06-22T11:16:50;95890.72;;;31.15;42.22
32197;BME280;18697;42.770;23.400;2023-06-22T11:19:15;95886.88;;;31.49;44.36
32197;BME280;18697;42.770;23.400;2023-06-22T11:21:41;95894.38;;;31.35;42.08
32197;BME280;18697;42.770;23.400;2023-06-22T11:24:06;95889.94;;;31.15;43.17
32197;BME280;18697;42.770;23.400;2023-06-22T11:26:31;95883.13;;;30.83;43.46
32197;BME280;18697;42.770;23.400;2023-06-22T11:28:58;95870.94;;;30.92;44.04
32197;BME280;18697;42.770;23.400;2023-06-22T11:31:23;95862.94;;;31.18;44.63
32197;BME280;18697;42.770;23.400;2023-06-22T11:33:49;95862.94;;;31.18;45.38
32197;BME280;18697;42.770;23.400;2023-06-22T11:36:15;95866.56;;;31.28;44.36
32197;BME280;18697;42.770;23.400;2023-06-22T11:38:41;95861.44;;;31.17;45.42
32197;BME280;18697;42.770;23.400;2023-06-22T11:41:06;95871.50;;;30.81;43.99
32197;BME280;18697;42.770;23.400;2023-06-22T11:43:33;95870.19;;;30.65;46.01
32197;BME280;18697;42.770;23.400;2023-06-22T11:45:59;95871.69;;;30.66;45.12
32197;BME280;18697;42.770;23.400;2023-06-22T11:48:25;95878.53;;;30.70;45.86
32197;BME280;18697;42.770;23.400;2023-06-22T11:50:50;95880.72;;;30.62;45.20
32197;BME280;18697;42.770;23.400;2023-06-22T11:53:16;95872.03;;;30.53;45.47
32197;BME280;18697;42.770;23.400;2023-06-22T11:55:45;95866.56;;;30.47;45.00
32197;BME280;18697;42.770;23.400;2023-06-22T11:58:10;95873.53;;;30.71;45.71
32197;BME280;18697;42.770;23.400;2023-06-22T12:00:37;95871.50;;;30.81;45.57
32197;BME280;18697;42.770;23.400;2023-06-22T12:03:02;95873.88;;;30.75;46.43
32197;BME280;18697;42.770;23.400;2023-06-22T12:05:28;95872.28;;;30.64;47.62
32197;BME280;18697;42.770;23.400;2023-06-22T12:07:54;95865.94;;;30.39;48.66
32197;BME280;18697;42.770;23.400;2023-06-22T12:10:20;95870.34;;;30.05;48.51
32197;BME280;18697;42.770;23.400;2023-06-22T12:12:46;95871.06;;;29.89;49.26
32197;BME280;18697;42.770;23.400;2023-06-22T12:15:11;95868.38;;;29.73;49.38
32197;BME280;18697;42.770;23.400;2023-06-22T12:17:37;95874.69;;;29.72;49.86
32197;BME280;18697;42.770;23.400;2023-06-22T12:20:03;95885.06;;;29.67;50.01
32197;BME280;18697;42.770;23.400;2023-06-22T12:22:32;95885.88;;;29.60;50.15
32197;BME280;18697;42.770;23.400;2023-06-22T12:25:00;95881.41;;;29.50;49.59
32197;BME280;18697;42.770;23.400;2023-06-22T12:27:26;95890.22;;;29.44;50.53
32197;BME280;18697;42.770;23.400;2023-06-22T12:29:52;95893.34;;;29.31;50.55
32197;BME280;18697;42.770;23.400;2023-06-22T12:32:17;95896.78;;;29.04;52.28
32197;BME280;18697;42.770;23.400;2023-06-22T12:34:43;95893.88;;;28.87;52.42
32197;BME280;18697;42.770;23.400;2023-06-22T12:37:09;95915.06;;;28.84;53.18
32197;BME280;18697;42.770;23.400;2023-06-22T12:39:34;95922.34;;;28.70;55.48
32197;BME280;18697;42.770;23.400;2023-06-22T12:42:00;95921.63;;;28.62;55.28
32197;BME280;18697;42.770;23.400;2023-06-22T12:44:27;95918.63;;;28.52;55.46
32197;BME280;18697;42.770;23.400;2023-06-22T12:46:53;95907.53;;;28.08;56.02
32197;BME280;18697;42.770;23.400;2023-06-22T12:49:18;95915.31;;;28.16;55.18
32197;BME280;18697;42.770;23.400;2023-06-22T12:51:44;95901.56;;;28.29;55.35
32197;BME280;18697;42.770;23.400;2023-06-22T12:54:11;95911.84;;;28.32;55.19
32197;BME280;18697;42.770;23.400;2023-06-22T12:56:37;95913.75;;;28.30;55.42
32197;BME280;18697;42.770;23.400;2023-06-22T12:59:03;95916.31;;;27.95;56.03